sensor_id;sensor_type;location;lat;lon;timestamp;P1;durP1;ratioP1;P2;durP2;ratioP2
19384;SDS011;9828;54.122;17.974;2022-12-18T00:03:01;102.67;;;45.47;;
19384;SDS011;9828;54.122;17.974;2022-12-18T00:08:22;86.77;;;40.03;;
19384;SDS011;9828;54.122;17.974;2022-12-18T00:13:44;75.50;;;33.53;;
19384;SDS011;9828;54.122;17.974;2022-12-18T00:19:05;73.27;;;32.97;;
19384;SDS011;9828;54.122;17.974;2022-12-18T00:24:27;79.63;;;35.20;;
19384;SDS011;9828;54.122;17.974;2022-12-18T00:29:48;80.40;;;33.93;;
19384;SDS011;9828;54.122;17.974;2022-12-18T00:35:10;74.60;;;32.63;;
19384;SDS011;9828;54.122;17.974;2022-12-18T00:40:32;80.27;;;33.17;;
19384;SDS011;9828;54.122;17.974;2022-12-18T00:45:54;72.60;;;30.83;;
19384;SDS011;9828;54.122;17.974;2022-12-18T00:51:15;78.60;;;35.77;;
19384;SDS011;9828;54.122;17.974;2022-12-18T00:56:37;88.60;;;37.73;;
19384;SDS011;9828;54.122;17.974;2022-12-18T01:02:04;81.20;;;37.00;;
19384;SDS011;9828;54.122;17.974;2022-12-18T01:07:25;89.67;;;37.43;;
19384;SDS011;9828;54.122;17.974;2022-12-18T01:12:47;73.67;;;31.87;;
19384;SDS011;9828;54.122;17.974;2022-12-18T01:18:10;69.80;;;30.53;;
19384;SDS011;9828;54.122;17.974;2022-12-18T01:23:31;72.47;;;31.17;;
19384;SDS011;9828;54.122;17.974;2022-12-18T01:28:53;62.07;;;29.33;;
19384;SDS011;9828;54.122;17.974;2022-12-18T01:34:16;67.80;;;32.27;;
19384;SDS011;9828;54.122;17.974;2022-12-18T01:39:37;66.73;;;30.70;;
19384;SDS011;9828;54.122;17.974;2022-12-18T01:45:00;64.40;;;29.73;;
19384;SDS011;9828;54.122;17.974;2022-12-18T01:56:04;62.63;;;28.17;;
19384;SDS011;9828;54.122;17.974;2022-12-18T02:01:26;71.00;;;30.03;;
19384;SDS011;9828;54.122;17.974;2022-12-18T02:06:49;64.90;;;29.97;;
19384;SDS011;9828;54.122;17.974;2022-12-18T02:12:24;64.10;;;30.23;;
19384;SDS011;9828;54.122;17.974;2022-12-18T02:17:54;53.57;;;25.77;;
19384;SDS011;9828;54.122;17.974;2022-12-18T02:23:47;59.37;;;29.07;;
19384;SDS011;9828;54.122;17.974;2022-12-18T02:29:24;73.70;;;33.20;;
19384;SDS011;9828;54.122;17.974;2022-12-18T02:34:50;57.77;;;27.47;;
19384;SDS011;9828;54.122;17.974;2022-12-18T02:40:15;49.17;;;24.20;;
19384;SDS011;9828;54.122;17.974;2022-12-18T02:45:49;62.80;;;24.93;;
19384;SDS011;9828;54.122;17.974;2022-12-18T02:51:19;64.63;;;29.10;;
19384;SDS011;9828;54.122;17.974;2022-12-18T02:56:51;64.23;;;29.07;;
19384;SDS011;9828;54.122;17.974;2022-12-18T03:02:19;58.77;;;29.73;;
19384;SDS011;9828;54.122;17.974;2022-12-18T03:07:48;50.93;;;25.57;;
19384;SDS011;9828;54.122;17.974;2022-12-18T03:13:34;51.13;;;24.07;;
19384;SDS011;9828;54.122;17.974;2022-12-18T03:19:05;55.07;;;25.67;;
19384;SDS011;9828;54.122;17.974;2022-12-18T03:24:33;56.93;;;22.60;;
19384;SDS011;9828;54.122;17.974;2022-12-18T03:30:04;42.80;;;22.23;;
19384;SDS011;9828;54.122;17.974;2022-12-18T03:35:35;57.87;;;24.67;;
19384;SDS011;9828;54.122;17.974;2022-12-18T03:47:28;42.00;;;20.83;;
19384;SDS011;9828;54.122;17.974;2022-12-18T03:53:00;51.67;;;22.70;;
19384;SDS011;9828;54.122;17.974;2022-12-18T03:58:34;57.33;;;26.30;;
19384;SDS011;9828;54.122;17.974;2022-12-18T04:04:09;58.83;;;27.60;;
19384;SDS011;9828;54.122;17.974;2022-12-18T04:09:33;55.30;;;26.73;;
19384;SDS011;9828;54.122;17.974;2022-12-18T04:14:56;56.77;;;25.57;;
19384;SDS011;9828;54.122;17.974;2022-12-18T04:20:18;58.97;;;29.30;;
19384;SDS011;9828;54.122;17.974;2022-12-18T04:25:40;58.07;;;27.70;;
19384;SDS011;9828;54.122;17.974;2022-12-18T04:31:05;65.30;;;30.30;;
19384;SDS011;9828;54.122;17.974;2022-12-18T04:36:26;75.63;;;33.50;;
19384;SDS011;9828;54.122;17.974;2022-12-18T04:41:48;66.40;;;32.00;;
19384;SDS011;9828;54.122;17.974;2022-12-18T04:47:10;78.50;;;38.40;;
19384;SDS011;9828;54.122;17.974;2022-12-18T04:52:31;75.43;;;35.30;;
19384;SDS011;9828;54.122;17.974;2022-12-18T04:57:53;71.40;;;32.40;;
19384;SDS011;9828;54.122;17.974;2022-12-18T05:03:14;65.77;;;29.77;;
19384;SDS011;9828;54.122;17.974;2022-12-18T05:08:35;55.70;;;25.67;;
19384;SDS011;9828;54.122;17.974;2022-12-18T05:13:56;54.80;;;24.07;;
19384;SDS011;9828;54.122;17.974;2022-12-18T05:19:18;61.73;;;28.90;;
19384;SDS011;9828;54.122;17.974;2022-12-18T05:24:39;58.93;;;27.37;;
19384;SDS011;9828;54.122;17.974;2022-12-18T05:30:00;54.67;;;27.03;;
19384;SDS011;9828;54.122;17.974;2022-12-18T05:35:22;88.57;;;48.60;;
19384;SDS011;9828;54.122;17.974;2022-12-18T05:40:43;70.27;;;41.13;;
19384;SDS011;9828;54.122;17.974;2022-12-18T05:46:05;55.03;;;27.13;;
19384;SDS011;9828;54.122;17.974;2022-12-18T05:51:33;64.00;;;28.20;;
19384;SDS011;9828;54.122;17.974;2022-12-18T05:56:54;58.30;;;28.03;;
19384;SDS011;9828;54.122;17.974;2022-12-18T06:02:16;63.97;;;28.93;;
19384;SDS011;9828;54.122;17.974;2022-12-18T06:07:37;53.97;;;25.03;;
19384;SDS011;9828;54.122;17.974;2022-12-18T06:12:58;63.90;;;33.10;;
19384;SDS011;9828;54.122;17.974;2022-12-18T06:18:20;65.83;;;32.23;;
19384;SDS011;9828;54.122;17.974;2022-12-18T06:23:41;77.07;;;36.63;;
19384;SDS011;9828;54.122;17.974;2022-12-18T06:29:02;66.33;;;32.87;;
19384;SDS011;9828;54.122;17.974;2022-12-18T06:34:23;239.23;;;117.10;;
19384;SDS011;9828;54.122;17.974;2022-12-18T06:39:44;173.27;;;94.83;;
19384;SDS011;9828;54.122;17.974;2022-12-18T06:45:06;114.93;;;57.17;;
19384;SDS011;9828;54.122;17.974;2022-12-18T06:50:28;96.30;;;48.87;;
19384;SDS011;9828;54.122;17.974;2022-12-18T06:55:49;579.07;;;200.17;;
19384;SDS011;9828;54.122;17.974;2022-12-18T07:01:11;376.13;;;142.73;;
19384;SDS011;9828;54.122;17.974;2022-12-18T07:06:33;200.87;;;87.53;;
19384;SDS011;9828;54.122;17.974;2022-12-18T07:11:54;132.27;;;74.80;;
19384;SDS011;9828;54.122;17.974;2022-12-18T07:17:15;72.27;;;39.70;;
19384;SDS011;9828;54.122;17.974;2022-12-18T07:22:36;60.47;;;29.27;;
19384;SDS011;9828;54.122;17.974;2022-12-18T07:27:57;87.77;;;36.07;;
19384;SDS011;9828;54.122;17.974;2022-12-18T07:33:18;82.83;;;34.97;;
19384;SDS011;9828;54.122;17.974;2022-12-18T07:38:40;68.53;;;32.33;;
19384;SDS011;9828;54.122;17.974;2022-12-18T07:44:01;72.57;;;35.57;;
19384;SDS011;9828;54.122;17.974;2022-12-18T07:49:23;89.43;;;41.47;;
19384;SDS011;9828;54.122;17.974;2022-12-18T07:54:44;97.13;;;43.00;;
19384;SDS011;9828;54.122;17.974;2022-12-18T08:00:06;126.90;;;50.33;;
19384;SDS011;9828;54.122;17.974;2022-12-18T08:05:31;96.00;;;39.33;;
19384;SDS011;9828;54.122;17.974;2022-12-18T08:10:52;73.27;;;32.37;;
19384;SDS011;9828;54.122;17.974;2022-12-18T08:16:13;61.57;;;25.70;;
19384;SDS011;9828;54.122;17.974;2022-12-18T08:21:34;80.97;;;28.93;;
19384;SDS011;9828;54.122;17.974;2022-12-18T08:26:55;62.17;;;27.43;;
19384;SDS011;9828;54.122;17.974;2022-12-18T08:32:32;63.00;;;27.83;;
19384;SDS011;9828;54.122;17.974;2022-12-18T08:37:53;49.83;;;22.37;;
19384;SDS011;9828;54.122;17.974;2022-12-18T08:43:14;68.03;;;27.53;;
19384;SDS011;9828;54.122;17.974;2022-12-18T08:48:54;59.67;;;28.33;;
19384;SDS011;9828;54.122;17.974;2022-12-18T08:54:16;43.50;;;20.77;;
19384;SDS011;9828;54.122;17.974;2022-12-18T08:59:37;40.70;;;17.80;;
19384;SDS011;9828;54.122;17.974;2022-12-18T09:04:58;42.10;;;19.57;;
19384;SDS011;9828;54.122;17.974;2022-12-18T09:10:19;41.97;;;21.90;;
19384;SDS011;9828;54.122;17.974;2022-12-18T09:15:45;58.10;;;24.73;;
19384;SDS011;9828;54.122;17.974;2022-12-18T09:21:18;53.43;;;22.43;;
19384;SDS011;9828;54.122;17.974;2022-12-18T09:26:41;55.90;;;24.70;;
19384;SDS011;9828;54.122;17.974;2022-12-18T09:32:03;64.27;;;29.53;;
19384;SDS011;9828;54.122;17.974;2022-12-18T09:37:24;66.00;;;27.63;;
19384;SDS011;9828;54.122;17.974;2022-12-18T09:42:46;90.57;;;32.90;;
19384;SDS011;9828;54.122;17.974;2022-12-18T09:48:51;86.03;;;35.00;;
19384;SDS011;9828;54.122;17.974;2022-12-18T09:54:07;66.57;;;24.97;;
19384;SDS011;9828;54.122;17.974;2022-12-18T09:59:38;84.93;;;35.87;;
19384;SDS011;9828;54.122;17.974;2022-12-18T10:05:03;76.53;;;27.70;;
19384;SDS011;9828;54.122;17.974;2022-12-18T10:10:38;70.17;;;24.03;;
19384;SDS011;9828;54.122;17.974;2022-12-18T10:16:07;74.53;;;27.83;;
19384;SDS011;9828;54.122;17.974;2022-12-18T10:22:40;59.53;;;25.03;;
19384;SDS011;9828;54.122;17.974;2022-12-18T10:27:32;52.03;;;24.87;;
19384;SDS011;9828;54.122;17.974;2022-12-18T10:32:53;45.23;;;21.10;;
19384;SDS011;9828;54.122;17.974;2022-12-18T10:43:38;56.17;;;28.33;;
19384;SDS011;9828;54.122;17.974;2022-12-18T10:49:01;42.57;;;20.73;;
19384;SDS011;9828;54.122;17.974;2022-12-18T10:54:22;39.93;;;19.90;;
19384;SDS011;9828;54.122;17.974;2022-12-18T10:59:54;55.73;;;23.40;;
19384;SDS011;9828;54.122;17.974;2022-12-18T11:10:46;39.90;;;18.63;;
19384;SDS011;9828;54.122;17.974;2022-12-18T11:16:07;32.80;;;16.63;;
19384;SDS011;9828;54.122;17.974;2022-12-18T11:21:39;32.20;;;16.27;;
19384;SDS011;9828;54.122;17.974;2022-12-18T11:27:04;31.30;;;17.00;;
19384;SDS011;9828;54.122;17.974;2022-12-18T11:32:34;33.40;;;17.27;;
19384;SDS011;9828;54.122;17.974;2022-12-18T11:38:05;29.70;;;15.77;;
19384;SDS011;9828;54.122;17.974;2022-12-18T11:49:26;35.53;;;19.27;;
19384;SDS011;9828;54.122;17.974;2022-12-18T11:55:00;35.83;;;17.63;;
19384;SDS011;9828;54.122;17.974;2022-12-18T12:00:31;38.10;;;17.97;;
19384;SDS011;9828;54.122;17.974;2022-12-18T12:11:39;47.00;;;25.20;;
19384;SDS011;9828;54.122;17.974;2022-12-18T12:22:58;40.93;;;21.43;;
19384;SDS011;9828;54.122;17.974;2022-12-18T12:39:40;38.97;;;19.00;;
19384;SDS011;9828;54.122;17.974;2022-12-18T12:45:13;38.60;;;18.63;;
19384;SDS011;9828;54.122;17.974;2022-12-18T12:50:40;39.67;;;18.93;;
19384;SDS011;9828;54.122;17.974;2022-12-18T12:56:03;37.17;;;17.43;;
19384;SDS011;9828;54.122;17.974;2022-12-18T13:12:31;46.40;;;21.30;;
19384;SDS011;9828;54.122;17.974;2022-12-18T13:18:30;53.67;;;25.73;;
19384;SDS011;9828;54.122;17.974;2022-12-18T13:23:52;58.07;;;26.27;;
19384;SDS011;9828;54.122;17.974;2022-12-18T13:29:39;51.57;;;25.07;;
19384;SDS011;9828;54.122;17.974;2022-12-18T13:35:52;53.43;;;26.13;;
19384;SDS011;9828;54.122;17.974;2022-12-18T13:46:21;81.63;;;34.30;;
19384;SDS011;9828;54.122;17.974;2022-12-18T13:51:49;106.80;;;38.10;;
19384;SDS011;9828;54.122;17.974;2022-12-18T13:57:29;138.80;;;52.93;;
19384;SDS011;9828;54.122;17.974;2022-12-18T14:02:51;85.27;;;36.77;;
19384;SDS011;9828;54.122;17.974;2022-12-18T14:08:16;64.33;;;27.23;;
19384;SDS011;9828;54.122;17.974;2022-12-18T14:13:40;76.40;;;29.33;;
19384;SDS011;9828;54.122;17.974;2022-12-18T14:19:02;74.83;;;29.33;;
19384;SDS011;9828;54.122;17.974;2022-12-18T14:24:23;91.17;;;33.33;;
19384;SDS011;9828;54.122;17.974;2022-12-18T14:29:45;88.63;;;41.73;;
19384;SDS011;9828;54.122;17.974;2022-12-18T14:35:12;90.20;;;36.50;;
19384;SDS011;9828;54.122;17.974;2022-12-18T14:40:34;95.57;;;37.80;;
19384;SDS011;9828;54.122;17.974;2022-12-18T14:45:55;92.73;;;38.50;;
19384;SDS011;9828;54.122;17.974;2022-12-18T14:51:18;70.97;;;29.50;;
19384;SDS011;9828;54.122;17.974;2022-12-18T14:56:46;67.83;;;26.53;;
19384;SDS011;9828;54.122;17.974;2022-12-18T15:02:28;126.57;;;52.37;;
19384;SDS011;9828;54.122;17.974;2022-12-18T15:07:50;139.83;;;56.87;;
19384;SDS011;9828;54.122;17.974;2022-12-18T15:13:20;112.83;;;50.03;;
19384;SDS011;9828;54.122;17.974;2022-12-18T15:18:44;116.20;;;47.33;;
19384;SDS011;9828;54.122;17.974;2022-12-18T15:24:14;116.60;;;42.90;;
19384;SDS011;9828;54.122;17.974;2022-12-18T15:29:39;112.70;;;41.30;;
19384;SDS011;9828;54.122;17.974;2022-12-18T15:40:44;105.47;;;38.53;;
19384;SDS011;9828;54.122;17.974;2022-12-18T15:46:11;100.80;;;41.87;;
19384;SDS011;9828;54.122;17.974;2022-12-18T15:51:35;100.30;;;35.57;;
19384;SDS011;9828;54.122;17.974;2022-12-18T15:56:58;95.60;;;33.47;;
19384;SDS011;9828;54.122;17.974;2022-12-18T16:02:37;81.97;;;31.13;;
19384;SDS011;9828;54.122;17.974;2022-12-18T16:07:58;82.73;;;32.30;;
19384;SDS011;9828;54.122;17.974;2022-12-18T16:13:20;79.27;;;29.30;;
19384;SDS011;9828;54.122;17.974;2022-12-18T16:18:41;87.13;;;32.90;;
19384;SDS011;9828;54.122;17.974;2022-12-18T16:24:02;118.83;;;46.90;;
19384;SDS011;9828;54.122;17.974;2022-12-18T16:29:23;98.37;;;37.67;;
19384;SDS011;9828;54.122;17.974;2022-12-18T16:34:47;72.73;;;32.57;;
19384;SDS011;9828;54.122;17.974;2022-12-18T16:40:10;76.73;;;33.37;;
19384;SDS011;9828;54.122;17.974;2022-12-18T16:45:33;87.00;;;35.53;;
19384;SDS011;9828;54.122;17.974;2022-12-18T16:51:02;108.03;;;41.37;;
19384;SDS011;9828;54.122;17.974;2022-12-18T16:56:24;120.57;;;49.00;;
19384;SDS011;9828;54.122;17.974;2022-12-18T17:01:46;106.80;;;45.07;;
19384;SDS011;9828;54.122;17.974;2022-12-18T17:07:08;201.23;;;82.60;;
19384;SDS011;9828;54.122;17.974;2022-12-18T17:12:29;143.30;;;59.77;;
19384;SDS011;9828;54.122;17.974;2022-12-18T17:17:51;110.63;;;41.90;;
19384;SDS011;9828;54.122;17.974;2022-12-18T17:23:12;79.97;;;33.40;;
19384;SDS011;9828;54.122;17.974;2022-12-18T17:28:33;80.73;;;34.40;;
19384;SDS011;9828;54.122;17.974;2022-12-18T17:33:55;81.17;;;35.27;;
19384;SDS011;9828;54.122;17.974;2022-12-18T17:39:17;105.70;;;42.33;;
19384;SDS011;9828;54.122;17.974;2022-12-18T17:44:40;131.80;;;48.17;;
19384;SDS011;9828;54.122;17.974;2022-12-18T17:50:02;116.17;;;43.87;;
19384;SDS011;9828;54.122;17.974;2022-12-18T17:55:24;117.83;;;44.07;;
19384;SDS011;9828;54.122;17.974;2022-12-18T18:00:45;123.40;;;42.30;;
19384;SDS011;9828;54.122;17.974;2022-12-18T18:06:07;129.87;;;47.80;;
19384;SDS011;9828;54.122;17.974;2022-12-18T18:11:28;106.10;;;40.20;;
19384;SDS011;9828;54.122;17.974;2022-12-18T18:17:08;96.27;;;34.93;;
19384;SDS011;9828;54.122;17.974;2022-12-18T18:22:29;97.73;;;40.10;;
19384;SDS011;9828;54.122;17.974;2022-12-18T18:27:50;86.10;;;31.77;;
19384;SDS011;9828;54.122;17.974;2022-12-18T18:33:12;120.70;;;47.80;;
19384;SDS011;9828;54.122;17.974;2022-12-18T18:38:33;94.67;;;36.27;;
19384;SDS011;9828;54.122;17.974;2022-12-18T18:43:55;70.63;;;28.17;;
19384;SDS011;9828;54.122;17.974;2022-12-18T18:49:17;83.23;;;35.53;;
19384;SDS011;9828;54.122;17.974;2022-12-18T18:54:38;125.60;;;43.53;;
19384;SDS011;9828;54.122;17.974;2022-12-18T19:00:07;85.13;;;33.50;;
19384;SDS011;9828;54.122;17.974;2022-12-18T19:05:32;116.17;;;42.13;;
19384;SDS011;9828;54.122;17.974;2022-12-18T19:10:54;119.63;;;44.07;;
19384;SDS011;9828;54.122;17.974;2022-12-18T19:16:17;104.93;;;39.03;;
19384;SDS011;9828;54.122;17.974;2022-12-18T19:21:38;96.47;;;35.13;;
19384;SDS011;9828;54.122;17.974;2022-12-18T19:26:59;102.53;;;37.50;;
19384;SDS011;9828;54.122;17.974;2022-12-18T19:32:21;84.97;;;33.77;;
19384;SDS011;9828;54.122;17.974;2022-12-18T19:37:43;79.90;;;32.77;;
19384;SDS011;9828;54.122;17.974;2022-12-18T19:43:04;94.40;;;39.73;;
19384;SDS011;9828;54.122;17.974;2022-12-18T19:48:25;112.53;;;40.30;;
19384;SDS011;9828;54.122;17.974;2022-12-18T19:53:46;96.73;;;37.87;;
19384;SDS011;9828;54.122;17.974;2022-12-18T19:59:09;161.33;;;51.33;;
19384;SDS011;9828;54.122;17.974;2022-12-18T20:04:30;210.30;;;65.87;;
19384;SDS011;9828;54.122;17.974;2022-12-18T20:09:52;89.67;;;34.93;;
19384;SDS011;9828;54.122;17.974;2022-12-18T20:15:17;78.57;;;32.87;;
19384;SDS011;9828;54.122;17.974;2022-12-18T20:20:38;82.90;;;32.50;;
19384;SDS011;9828;54.122;17.974;2022-12-18T20:26:00;86.90;;;32.20;;
19384;SDS011;9828;54.122;17.974;2022-12-18T20:31:21;88.80;;;35.60;;
19384;SDS011;9828;54.122;17.974;2022-12-18T20:36:43;88.23;;;32.47;;
19384;SDS011;9828;54.122;17.974;2022-12-18T20:42:04;80.43;;;33.23;;
19384;SDS011;9828;54.122;17.974;2022-12-18T20:47:25;74.53;;;28.97;;
19384;SDS011;9828;54.122;17.974;2022-12-18T20:52:46;66.63;;;27.47;;
19384;SDS011;9828;54.122;17.974;2022-12-18T20:58:07;79.97;;;31.47;;
19384;SDS011;9828;54.122;17.974;2022-12-18T21:03:28;72.80;;;30.20;;
19384;SDS011;9828;54.122;17.974;2022-12-18T21:08:49;76.77;;;32.63;;
19384;SDS011;9828;54.122;17.974;2022-12-18T21:14:12;73.87;;;28.90;;
19384;SDS011;9828;54.122;17.974;2022-12-18T21:19:33;76.33;;;29.57;;
19384;SDS011;9828;54.122;17.974;2022-12-18T21:24:54;98.70;;;36.17;;
19384;SDS011;9828;54.122;17.974;2022-12-18T21:30:15;87.97;;;33.27;;
19384;SDS011;9828;54.122;17.974;2022-12-18T21:35:36;74.43;;;29.17;;
19384;SDS011;9828;54.122;17.974;2022-12-18T21:40:58;79.60;;;28.77;;
19384;SDS011;9828;54.122;17.974;2022-12-18T21:46:19;74.73;;;29.10;;
19384;SDS011;9828;54.122;17.974;2022-12-18T21:51:40;75.37;;;29.67;;
19384;SDS011;9828;54.122;17.974;2022-12-18T21:57:03;72.27;;;29.67;;
19384;SDS011;9828;54.122;17.974;2022-12-18T22:02:25;74.53;;;30.20;;
19384;SDS011;9828;54.122;17.974;2022-12-18T22:07:46;88.20;;;33.73;;
19384;SDS011;9828;54.122;17.974;2022-12-18T22:13:07;76.77;;;31.67;;
19384;SDS011;9828;54.122;17.974;2022-12-18T22:18:29;86.37;;;33.27;;
19384;SDS011;9828;54.122;17.974;2022-12-18T22:23:51;98.40;;;36.77;;
19384;SDS011;9828;54.122;17.974;2022-12-18T22:29:23;78.63;;;31.60;;
19384;SDS011;9828;54.122;17.974;2022-12-18T22:35:04;61.83;;;26.07;;
19384;SDS011;9828;54.122;17.974;2022-12-18T22:40:28;69.43;;;27.50;;
19384;SDS011;9828;54.122;17.974;2022-12-18T22:45:50;68.37;;;28.97;;
19384;SDS011;9828;54.122;17.974;2022-12-18T22:51:14;62.80;;;25.93;;
19384;SDS011;9828;54.122;17.974;2022-12-18T22:56:36;73.27;;;32.33;;
19384;SDS011;9828;54.122;17.974;2022-12-18T23:01:58;84.00;;;32.17;;
19384;SDS011;9828;54.122;17.974;2022-12-18T23:07:19;76.90;;;30.87;;
19384;SDS011;9828;54.122;17.974;2022-12-18T23:12:41;78.90;;;31.50;;
19384;SDS011;9828;54.122;17.974;2022-12-18T23:18:02;81.47;;;36.13;;
19384;SDS011;9828;54.122;17.974;2022-12-18T23:23:24;65.97;;;25.97;;
19384;SDS011;9828;54.122;17.974;2022-12-18T23:28:45;72.17;;;28.33;;
19384;SDS011;9828;54.122;17.974;2022-12-18T23:34:07;71.23;;;27.33;;
19384;SDS011;9828;54.122;17.974;2022-12-18T23:39:30;62.37;;;25.20;;
19384;SDS011;9828;54.122;17.974;2022-12-18T23:44:52;70.10;;;28.10;;
19384;SDS011;9828;54.122;17.974;2022-12-18T23:50:13;78.40;;;28.83;;
19384;SDS011;9828;54.122;17.974;2022-12-18T23:55:38;79.93;;;29.70;;
